createdAt,value
2019-04-27T00:00:46.029Z,8.73
2019-04-27T00:03:17.038Z,10.15
2019-04-27T00:05:50.776Z,11.18
2019-04-27T00:08:21.784Z,9.68
2019-04-27T00:11:08.482Z,9.13
2019-04-27T00:13:40.409Z,9.10
2019-04-27T00:16:13.405Z,11.90
2019-04-27T00:19:03.902Z,10.58
2019-04-27T00:21:37.532Z,10.83
2019-04-27T00:24:06.903Z,10.05
2019-04-27T00:26:36.594Z,9.68
2019-04-27T00:29:06.036Z,12.63
2019-04-27T00:31:35.889Z,10.90
2019-04-27T00:34:06.504Z,11.90
2019-04-27T00:36:37.542Z,10.50
2019-04-27T00:39:15.446Z,13.95
2019-04-27T00:41:45.287Z,10.95
2019-04-27T00:44:14.661Z,9.98
2019-04-27T00:46:44.072Z,13.98
2019-04-27T00:49:13.826Z,10.40
2019-04-27T00:51:43.449Z,10.93
2019-04-27T00:54:13.604Z,11.30
2019-04-27T00:56:53.431Z,12.75
2019-04-27T00:59:30.302Z,11.08
2019-04-27T01:02:17.424Z,10.75
2019-04-27T01:04:47.226Z,10.58
2019-04-27T01:07:16.593Z,11.33
2019-04-27T01:09:46.100Z,11.25
2019-04-27T01:12:15.665Z,12.55
2019-04-27T01:14:45.218Z,12.60
2019-04-27T01:17:14.652Z,12.03
2019-04-27T01:19:44.042Z,12.13
2019-04-27T01:22:13.596Z,12.23
2019-04-27T01:24:42.963Z,17.48
2019-04-27T01:27:23.103Z,12.28
2019-04-27T01:29:54.252Z,13.13
2019-04-27T01:32:23.647Z,14.07
2019-04-27T01:34:54.161Z,13.15
2019-04-27T01:37:23.542Z,14.28
2019-04-27T01:39:52.940Z,15.90
2019-04-27T01:42:22.335Z,16.12
2019-04-27T01:44:51.778Z,17.98
2019-04-27T01:47:21.154Z,17.07
2019-04-27T01:49:50.896Z,20.35
2019-04-27T01:52:20.276Z,18.50
2019-04-27T01:54:49.680Z,18.62
2019-04-27T01:57:19.477Z,18.95
2019-04-27T01:59:49.119Z,17.92
2019-04-27T02:02:20.907Z,16.17
2019-04-27T02:05:08.951Z,17.55
2019-04-27T02:07:39.028Z,15.28
2019-04-27T02:10:10.347Z,16.25
2019-04-27T02:12:39.820Z,14.90
2019-04-27T02:15:10.675Z,14.88
2019-04-27T02:17:40.340Z,14.30
2019-04-27T02:20:11.590Z,15.32
2019-04-27T02:22:41.045Z,14.50
2019-04-27T02:25:14.546Z,14.68
2019-04-27T02:27:45.623Z,13.25
2019-04-27T02:30:33.407Z,13.30
2019-04-27T02:33:22.566Z,13.48
2019-04-27T02:35:51.922Z,11.88
2019-04-27T02:38:22.544Z,10.55
2019-04-27T02:40:56.320Z,9.73
2019-04-27T02:43:42.496Z,10.40
2019-04-27T02:46:11.889Z,10.80
2019-04-27T02:48:55.622Z,11.10
2019-04-27T02:51:13.991Z,9.73
2019-04-27T02:54:01.863Z,11.08
2019-04-27T02:56:31.239Z,11.85
2019-04-27T03:01:45.654Z,9.80
2019-04-27T03:04:10.070Z,9.50
2019-04-27T03:06:40.079Z,8.98
2019-04-27T03:09:10.413Z,8.65
2019-04-27T03:11:39.905Z,9.20
2019-04-27T03:14:34.756Z,10.32
2019-04-27T03:17:02.596Z,8.78
2019-04-27T03:19:36.688Z,8.23
2019-04-27T03:22:09.631Z,9.18
2019-04-27T03:24:59.999Z,9.30
2019-04-27T03:27:31.417Z,9.45
2019-04-27T03:30:01.318Z,8.23
2019-04-27T03:32:31.788Z,7.85
2019-04-27T03:35:03.174Z,7.25
2019-04-27T03:37:32.522Z,6.65
2019-04-27T03:40:02.431Z,7.22
2019-04-27T03:42:37.082Z,7.67
2019-04-27T03:45:10.483Z,6.28
2019-04-27T03:47:40.777Z,7.28
2019-04-27T03:50:13.619Z,6.70
2019-04-27T03:53:02.323Z,7.53
2019-04-27T03:55:33.325Z,7.72
2019-04-27T03:58:11.773Z,6.60
2019-04-27T04:00:39.870Z,10.50
2019-04-27T04:03:10.691Z,7.72
2019-04-27T04:05:40.126Z,9.18
2019-04-27T04:08:10.706Z,9.10
2019-04-27T04:10:42.007Z,8.03
2019-04-27T04:13:15.393Z,8.53
2019-04-27T04:18:22.163Z,7.58
2019-04-27T04:20:51.547Z,9.60
2019-04-27T04:23:20.920Z,8.33
2019-04-27T04:25:50.331Z,9.90
2019-04-27T04:28:20.174Z,9.68
2019-04-27T04:30:50.301Z,9.63
2019-04-27T04:33:20.558Z,9.33
2019-04-27T04:35:50.280Z,10.28
2019-04-27T04:38:20.761Z,12.70
2019-04-27T04:40:51.863Z,12.60
2019-04-27T04:43:23.946Z,12.50
2019-04-27T04:45:54.980Z,15.40
2019-04-27T04:48:24.358Z,10.55
2019-04-27T04:50:53.743Z,11.15
2019-04-27T04:53:23.407Z,12.20
2019-04-27T04:55:52.863Z,13.65
2019-04-27T04:58:22.239Z,13.45
2019-04-27T05:00:51.637Z,12.25
2019-04-27T05:03:21.835Z,13.93
2019-04-27T05:05:51.434Z,15.80
2019-04-27T05:08:20.829Z,15.28
2019-04-27T05:10:50.208Z,14.85
2019-04-27T05:13:19.582Z,15.13
2019-04-27T05:15:48.986Z,18.48
2019-04-27T05:18:19.169Z,15.83
2019-04-27T05:20:50.430Z,16.40
2019-04-27T05:23:19.816Z,15.83
2019-04-27T05:25:49.422Z,15.05
2019-04-27T05:28:18.893Z,16.45
2019-04-27T05:30:49.015Z,16.32
2019-04-27T05:33:18.886Z,17.48
2019-04-27T05:35:49.144Z,19.45
2019-04-27T05:38:19.392Z,18.77
2019-04-27T05:40:50.007Z,19.02
2019-04-27T05:43:21.204Z,18.67
2019-04-27T05:46:35.503Z,19.92
2019-04-27T05:49:05.974Z,19.35
2019-04-27T05:51:36.878Z,20.92
2019-04-27T05:54:03.459Z,19.65
2019-04-27T05:56:32.846Z,19.02
2019-04-27T05:59:02.320Z,17.40
2019-04-27T06:01:31.725Z,20.40
2019-04-27T06:04:01.362Z,16.73
2019-04-27T06:06:30.743Z,19.35
2019-04-27T06:09:00.132Z,18.42
2019-04-27T06:11:29.540Z,20.20
2019-04-27T06:13:59.388Z,17.55
2019-04-27T06:16:29.564Z,19.15
2019-04-27T06:18:59.507Z,20.25
2019-04-27T06:21:29.561Z,18.25
2019-04-27T06:23:59.072Z,16.62
2019-04-27T06:26:30.101Z,17.48
2019-04-27T06:28:59.695Z,16.15
2019-04-27T06:31:29.701Z,16.30
2019-04-27T06:33:59.799Z,16.73
2019-04-27T06:36:29.199Z,16.48
2019-04-27T06:38:58.981Z,19.82
2019-04-27T06:41:29.535Z,22.50
2019-04-27T06:43:59.345Z,20.60
2019-04-27T06:46:29.027Z,22.58
2019-04-27T06:48:59.321Z,21.52
2019-04-27T06:51:28.993Z,24.32
2019-04-27T06:53:59.473Z,22.58
2019-04-27T06:56:28.935Z,24.15
2019-04-27T06:58:59.709Z,26.68
2019-04-27T07:01:29.936Z,25.27
2019-04-27T07:03:59.841Z,24.77
2019-04-27T07:06:29.417Z,28.60
2019-04-27T07:08:59.759Z,26.87
2019-04-27T07:11:29.695Z,25.62
2019-04-27T07:13:59.498Z,23.73
2019-04-27T07:16:29.377Z,23.45
2019-04-27T07:18:59.415Z,23.95
2019-04-27T07:21:29.212Z,26.25
2019-04-27T07:23:59.628Z,23.70
2019-04-27T07:26:30.309Z,22.37
2019-04-27T07:29:00.193Z,24.37
2019-04-27T07:31:31.818Z,23.42
2019-04-27T07:34:00.754Z,24.37
2019-04-27T07:36:30.130Z,22.58
2019-04-27T07:38:59.948Z,22.85
2019-04-27T07:41:29.393Z,23.20
2019-04-27T07:44:00.417Z,23.65
2019-04-27T07:46:31.769Z,23.45
2019-04-27T07:49:01.339Z,24.02
2019-04-27T07:51:33.778Z,24.40
2019-04-27T07:54:01.941Z,25.85
2019-04-27T07:56:31.326Z,25.23
2019-04-27T07:59:00.754Z,24.82
2019-04-27T08:01:30.159Z,23.22
2019-04-27T08:03:59.563Z,24.23
2019-04-27T08:06:29.104Z,25.90
2019-04-27T08:08:59.314Z,29.48
2019-04-27T08:11:29.169Z,26.23
2019-04-27T08:13:58.938Z,26.95
2019-04-27T08:16:29.054Z,24.43
2019-04-27T08:19:00.027Z,26.25
2019-04-27T08:21:29.463Z,25.97
2019-04-27T08:23:59.125Z,29.87
2019-04-27T08:26:30.127Z,26.73
2019-04-27T08:29:05.571Z,25.10
2019-04-27T08:31:39.410Z,27.50
2019-04-27T08:34:10.437Z,25.50
2019-04-27T08:36:39.813Z,27.93
2019-04-27T08:39:09.513Z,27.98
2019-04-27T08:41:39.497Z,28.25
2019-04-27T08:44:09.806Z,34.88
2019-04-27T08:46:39.231Z,27.35
2019-04-27T08:49:10.110Z,26.77
2019-04-27T08:51:41.539Z,31.75
2019-04-27T08:54:11.470Z,30.70
2019-04-27T08:56:40.865Z,32.38
2019-04-27T08:59:10.286Z,29.72
2019-04-27T09:01:39.816Z,27.02
2019-04-27T09:04:11.265Z,30.45
2019-04-27T09:06:41.984Z,29.02
2019-04-27T09:09:29.560Z,28.00
2019-04-27T09:12:00.872Z,27.52
2019-04-27T09:14:31.887Z,28.60
2019-04-27T09:17:05.638Z,28.15
2019-04-27T09:19:45.608Z,23.47
2019-04-27T09:22:16.543Z,27.22
2019-04-27T09:24:46.325Z,25.27
2019-04-27T09:27:17.352Z,26.90
2019-04-27T09:29:47.446Z,25.23
2019-04-27T09:32:16.826Z,25.17
2019-04-27T09:34:46.673Z,27.05
2019-04-27T09:37:16.197Z,24.40
2019-04-27T09:39:46.085Z,24.43
2019-04-27T09:42:16.782Z,23.22
2019-04-27T09:44:47.674Z,20.60
2019-04-27T09:47:17.115Z,22.55
2019-04-27T09:49:46.503Z,21.02
2019-04-27T09:52:24.367Z,20.23
2019-04-27T09:54:48.160Z,20.15
2019-04-27T09:57:17.868Z,21.12
2019-04-27T09:59:47.351Z,20.88
2019-04-27T10:02:16.794Z,18.30
2019-04-27T10:04:46.308Z,17.00
2019-04-27T10:07:16.575Z,17.98
2019-04-27T10:09:47.523Z,17.80
2019-04-27T10:12:17.008Z,20.52
2019-04-27T10:14:47.766Z,16.05
2019-04-27T10:17:17.251Z,17.33
2019-04-27T10:19:46.634Z,16.05
2019-04-27T10:22:16.125Z,16.42
2019-04-27T10:24:45.470Z,17.45
2019-04-27T10:27:16.130Z,17.00
2019-04-27T10:29:46.731Z,17.82
2019-04-27T10:32:16.508Z,20.12
2019-04-27T10:34:45.909Z,19.75
2019-04-27T10:37:16.066Z,18.02
2019-04-27T10:39:46.069Z,18.40
2019-04-27T10:42:15.945Z,18.45
2019-04-27T10:44:46.173Z,18.30
2019-04-27T10:47:15.983Z,16.25
2019-04-27T10:49:48.051Z,16.80
2019-04-27T10:52:18.033Z,19.15
2019-04-27T10:54:47.465Z,16.15
2019-04-27T10:57:16.841Z,15.78
2019-04-27T10:59:47.334Z,14.75
2019-04-27T11:02:16.784Z,16.12
2019-04-27T11:04:53.971Z,14.25
2019-04-27T11:07:26.050Z,17.95
2019-04-27T11:09:55.414Z,15.72
2019-04-27T11:12:24.804Z,15.30
2019-04-27T11:14:54.205Z,14.63
2019-04-27T11:17:23.586Z,17.50
2019-04-27T11:19:52.959Z,14.55
2019-04-27T11:22:22.355Z,13.38
2019-04-27T11:24:51.752Z,12.90
2019-04-27T11:27:21.160Z,14.55
2019-04-27T11:29:50.977Z,12.35
2019-04-27T11:32:20.345Z,12.45
2019-04-27T11:35:03.319Z,13.58
2019-04-27T11:37:35.625Z,13.00
2019-04-27T11:40:09.547Z,11.95
2019-04-27T11:42:38.925Z,11.50
2019-04-27T11:45:10.448Z,10.86
2019-04-27T11:47:40.019Z,11.22
2019-04-27T11:50:11.239Z,13.90
2019-04-27T11:52:40.709Z,14.75
2019-04-27T11:55:13.675Z,10.98
2019-04-27T11:57:43.062Z,11.93
2019-04-27T12:00:16.612Z,11.60
2019-04-27T12:02:46.669Z,13.28
2019-04-27T12:05:17.275Z,12.60
2019-04-27T12:07:47.878Z,10.38
2019-04-27T12:10:18.645Z,10.27
2019-04-27T12:12:48.025Z,10.72
2019-04-27T12:15:18.613Z,12.57
2019-04-27T12:17:48.105Z,12.95
2019-04-27T12:20:18.055Z,11.67
2019-04-27T12:22:47.475Z,11.57
2019-04-27T12:25:17.114Z,10.30
2019-04-27T12:27:50.811Z,9.48
2019-04-27T12:30:21.832Z,12.03
2019-04-27T12:32:51.798Z,13.68
2019-04-27T12:35:21.183Z,11.70
2019-04-27T12:37:50.551Z,9.98
2019-04-27T12:40:19.937Z,12.55
2019-04-27T12:42:49.321Z,11.75
2019-04-27T12:45:18.688Z,9.70
2019-04-27T12:47:48.062Z,17.32
2019-04-27T12:50:18.059Z,11.12
2019-04-27T12:52:49.075Z,9.78
2019-04-27T12:55:29.643Z,8.23
2019-04-27T12:58:03.299Z,6.72
2019-04-27T13:00:36.915Z,9.53
2019-04-27T13:03:06.284Z,7.45
2019-04-27T13:05:37.147Z,9.08
2019-04-27T13:08:06.619Z,10.23
2019-04-27T13:10:35.994Z,9.80
2019-04-27T13:13:06.310Z,11.18
2019-04-27T13:15:36.329Z,10.90
2019-04-27T13:18:05.771Z,9.75
2019-04-27T13:20:35.932Z,9.77
2019-04-27T13:23:07.208Z,7.55
2019-04-27T13:25:38.519Z,10.45
2019-04-27T13:28:07.899Z,9.93
2019-04-27T13:30:37.967Z,11.10
2019-04-27T13:33:07.341Z,10.65
2019-04-27T13:35:36.718Z,10.50
2019-04-27T13:38:06.100Z,8.15
2019-04-27T13:40:37.119Z,12.85
2019-04-27T13:43:10.955Z,10.08
2019-04-27T13:45:54.059Z,9.15
2019-04-27T13:48:30.742Z,9.75
2019-04-27T13:51:01.753Z,7.92
2019-04-27T13:53:31.136Z,9.08
2019-04-27T13:56:02.171Z,11.35
2019-04-27T13:58:31.532Z,8.35
2019-04-27T14:01:00.903Z,9.18
2019-04-27T14:03:30.373Z,8.90
2019-04-27T14:06:01.094Z,8.75
2019-04-27T14:08:31.604Z,9.58
2019-04-27T14:11:01.358Z,9.90
2019-04-27T14:13:30.704Z,7.53
2019-04-27T14:16:00.069Z,7.62
2019-04-27T14:18:29.457Z,10.72
2019-04-27T14:20:59.271Z,12.23
2019-04-27T14:23:30.440Z,10.05
2019-04-27T14:26:00.408Z,10.20
2019-04-27T14:28:29.895Z,8.38
2019-04-27T14:30:59.289Z,8.48
2019-04-27T14:33:28.833Z,5.67
2019-04-27T14:35:59.419Z,9.40
2019-04-27T14:38:29.003Z,9.53
2019-04-27T14:40:59.388Z,10.95
2019-04-27T14:43:28.854Z,7.40
2019-04-27T14:45:58.401Z,6.08
2019-04-27T14:48:29.548Z,7.87
2019-04-27T14:50:59.156Z,5.50
2019-04-27T14:53:28.741Z,6.85
2019-04-27T14:55:58.690Z,7.17
2019-04-27T14:58:28.471Z,6.53
2019-04-27T15:00:58.569Z,6.50
2019-04-27T15:03:28.029Z,6.15
2019-04-27T15:05:57.682Z,4.90
2019-04-27T15:08:27.063Z,4.55
2019-04-27T15:10:56.782Z,3.92
2019-04-27T15:13:26.235Z,7.10
2019-04-27T15:15:55.588Z,5.85
2019-04-27T15:18:29.577Z,5.80
2019-04-27T15:20:58.545Z,6.00
2019-04-27T15:23:30.882Z,5.95
2019-04-27T15:26:00.454Z,6.28
2019-04-27T15:28:32.046Z,4.70
2019-04-27T15:31:03.430Z,4.87
2019-04-27T15:33:54.440Z,5.05
2019-04-27T15:36:23.538Z,5.60
2019-04-27T15:38:58.501Z,4.87
2019-04-27T15:41:48.527Z,4.40
2019-04-27T15:44:18.777Z,5.50
2019-04-27T15:46:48.222Z,5.25
2019-04-27T15:49:18.013Z,5.78
2019-04-27T15:51:50.666Z,5.45
2019-04-27T15:54:22.275Z,5.97
2019-04-27T15:56:50.039Z,6.33
2019-04-27T16:02:11.828Z,6.05
2019-04-27T16:04:38.119Z,6.08
2019-04-27T16:07:08.460Z,9.58
2019-04-27T16:09:38.791Z,9.28
2019-04-27T16:12:12.625Z,5.33
2019-04-27T16:14:44.048Z,5.85
2019-04-27T16:17:11.740Z,5.97
2019-04-27T16:19:46.755Z,6.28
2019-04-27T16:22:12.653Z,6.80
2019-04-27T16:24:42.354Z,5.45
2019-04-27T16:27:11.734Z,5.78
2019-04-27T16:29:41.095Z,5.70
2019-04-27T16:32:11.500Z,6.33
2019-04-27T16:34:41.336Z,7.03
2019-04-27T16:37:14.027Z,7.45
2019-04-27T16:39:45.565Z,5.87
2019-04-27T16:42:15.459Z,5.80
2019-04-27T16:44:49.479Z,7.70
2019-04-27T16:47:17.562Z,8.10
2019-04-27T16:49:48.322Z,5.50
2019-04-27T16:52:19.310Z,6.85
2019-04-27T16:54:56.966Z,5.80
2019-04-27T16:57:21.978Z,5.78
2019-04-27T16:59:57.760Z,7.37
2019-04-27T17:02:25.094Z,6.83
2019-04-27T17:04:55.621Z,5.72
2019-04-27T17:07:24.637Z,4.90
2019-04-27T17:09:57.180Z,6.50
2019-04-27T17:12:29.829Z,5.53
2019-04-27T17:15:15.829Z,6.80
2019-04-27T17:17:48.695Z,6.10
2019-04-27T17:20:21.196Z,9.77
2019-04-27T17:22:50.237Z,5.60
2019-04-27T17:25:23.233Z,7.90
2019-04-27T17:27:53.119Z,6.05
2019-04-27T17:30:23.353Z,4.90
2019-04-27T17:32:59.123Z,9.23
2019-04-27T17:35:28.557Z,5.78
2019-04-27T17:37:59.615Z,6.55
2019-04-27T17:40:29.820Z,4.65
2019-04-27T17:43:06.588Z,7.30
2019-04-27T17:45:36.231Z,10.78
2019-04-27T17:48:06.849Z,6.97
2019-04-27T17:50:34.822Z,8.35
2019-04-27T17:53:04.722Z,9.53
2019-04-27T17:55:34.104Z,7.08
2019-04-27T17:58:05.092Z,9.40
2019-04-27T18:03:12.569Z,7.05
2019-04-27T18:05:43.772Z,6.87
2019-04-27T18:08:13.487Z,8.58
2019-04-27T18:10:44.616Z,9.13
2019-04-27T18:13:13.987Z,8.60
2019-04-27T18:15:45.800Z,7.12
2019-04-27T18:18:22.868Z,9.53
2019-04-27T18:20:51.888Z,7.28
2019-04-27T18:23:22.987Z,11.20
2019-04-27T18:26:12.696Z,6.72
2019-04-27T18:28:45.759Z,7.33
2019-04-27T18:31:17.853Z,6.42
2019-04-27T18:33:47.632Z,7.67
2019-04-27T18:36:18.213Z,6.97
2019-04-27T18:38:49.219Z,5.92
2019-04-27T18:41:19.053Z,9.08
2019-04-27T18:43:52.254Z,6.08
2019-04-27T18:46:24.448Z,8.03
2019-04-27T18:48:53.939Z,7.58
2019-04-27T18:51:38.430Z,7.65
2019-04-27T18:54:08.218Z,8.38
2019-04-27T18:56:38.468Z,10.10
2019-04-27T18:59:08.674Z,7.90
2019-04-27T19:01:38.155Z,8.03
2019-04-27T19:04:08.696Z,7.58
2019-04-27T19:06:39.135Z,9.05
2019-04-27T19:09:09.090Z,7.10
2019-04-27T19:11:38.493Z,8.53
2019-04-27T19:14:08.430Z,6.53
2019-04-27T19:16:38.479Z,6.83
2019-04-27T19:19:08.662Z,7.67
2019-04-27T19:21:39.493Z,9.98
2019-04-27T19:24:09.252Z,5.50
2019-04-27T19:26:40.358Z,4.62
2019-04-27T19:29:11.396Z,4.40
2019-04-27T19:31:49.993Z,2.75
2019-04-27T19:34:19.794Z,1.72
2019-04-27T19:36:49.243Z,2.33
2019-04-27T19:39:19.037Z,2.83
2019-04-27T19:41:57.919Z,4.53
2019-04-27T19:44:20.188Z,2.35
2019-04-27T19:46:49.604Z,3.45
2019-04-27T19:49:19.367Z,3.12
2019-04-27T19:51:49.035Z,1.90
2019-04-27T19:54:18.431Z,3.15
2019-04-27T19:56:49.892Z,2.25
2019-04-27T19:59:20.557Z,3.20
2019-04-27T20:01:50.934Z,4.23
2019-04-27T20:04:24.750Z,2.58
2019-04-27T20:06:54.129Z,1.57
2019-04-27T20:09:25.165Z,2.35
2019-04-27T20:11:54.615Z,2.15
2019-04-27T20:14:23.990Z,5.62
2019-04-27T20:16:53.487Z,2.65
2019-04-27T20:19:22.857Z,2.40
2019-04-27T20:21:52.506Z,3.45
2019-04-27T20:24:23.018Z,3.42
2019-04-27T20:26:52.404Z,2.25
2019-04-27T20:29:21.877Z,2.77
2019-04-27T20:31:51.363Z,2.58
2019-04-27T20:34:22.726Z,1.32
2019-04-27T20:36:52.862Z,1.98
2019-04-27T20:39:22.731Z,1.15
2019-04-27T20:41:52.107Z,2.00
2019-04-27T20:44:21.724Z,3.50
2019-04-27T20:46:51.420Z,2.95
2019-04-27T20:49:21.419Z,1.65
2019-04-27T20:51:53.267Z,1.85
2019-04-27T20:54:23.853Z,1.90
2019-04-27T20:56:55.676Z,1.87
2019-04-27T20:59:24.404Z,2.22
2019-04-27T21:01:53.840Z,1.65
2019-04-27T21:04:33.607Z,7.17
2019-04-27T21:07:08.393Z,3.55
2019-04-27T21:09:37.776Z,7.03
2019-04-27T21:12:07.153Z,5.35
2019-04-27T21:14:36.897Z,4.42
2019-04-27T21:17:06.267Z,3.42
2019-04-27T21:19:35.633Z,3.47
2019-04-27T21:22:05.139Z,2.85
2019-04-27T21:24:34.507Z,2.20
2019-04-27T21:27:05.007Z,4.47
2019-04-27T21:29:34.386Z,3.22
2019-04-27T21:32:03.764Z,2.65
2019-04-27T21:34:33.139Z,2.00
2019-04-27T21:37:03.029Z,3.02
2019-04-27T21:39:32.324Z,3.45
2019-04-27T21:42:01.726Z,2.60
2019-04-27T21:44:31.916Z,2.87
2019-04-27T21:47:01.370Z,3.30
2019-04-27T21:49:31.463Z,2.75
2019-04-27T21:52:02.594Z,2.98
2019-04-27T21:54:36.474Z,3.75
2019-04-27T21:57:05.843Z,3.27
2019-04-27T21:59:35.637Z,3.25
2019-04-27T22:04:51.707Z,4.42
2019-04-27T22:07:21.567Z,3.80
2019-04-27T22:09:51.727Z,3.35
2019-04-27T22:12:21.361Z,5.55
2019-04-27T22:14:50.903Z,2.60
2019-04-27T22:17:21.812Z,5.12
2019-04-27T22:19:52.391Z,2.62
2019-04-27T22:22:26.358Z,4.00
2019-04-27T22:24:57.381Z,3.83
2019-04-27T22:27:26.755Z,4.30
2019-04-27T22:29:57.442Z,2.60
2019-04-27T22:32:26.736Z,5.42
2019-04-27T22:34:56.497Z,4.80
2019-04-27T22:37:25.915Z,4.67
2019-04-27T22:40:13.033Z,5.53
2019-04-27T22:43:01.599Z,5.53
2019-04-27T22:45:32.819Z,6.40
2019-04-27T22:48:02.185Z,5.62
2019-04-27T22:50:31.558Z,7.95
2019-04-27T22:53:01.284Z,5.95
2019-04-27T22:55:31.104Z,4.97
2019-04-27T22:58:04.840Z,4.67
2019-04-27T23:03:31.446Z,2.60
2019-04-27T23:06:01.374Z,3.20
2019-04-27T23:08:31.286Z,4.08
2019-04-27T23:11:02.513Z,4.28
2019-04-27T23:13:31.915Z,5.00
2019-04-27T23:16:02.884Z,4.50
2019-04-27T23:18:32.260Z,4.80
2019-04-27T23:21:01.688Z,3.45
2019-04-27T23:23:31.134Z,3.67
2019-04-27T23:26:01.812Z,3.87
2019-04-27T23:28:31.436Z,2.83
2019-04-27T23:31:06.085Z,3.52
2019-04-27T23:33:36.695Z,4.25
2019-04-27T23:36:06.266Z,3.30
2019-04-27T23:38:35.630Z,3.45
2019-04-27T23:41:04.998Z,4.47
2019-04-27T23:43:34.370Z,3.67
2019-04-27T23:46:03.750Z,3.12
2019-04-27T23:48:33.185Z,5.60
2019-04-27T23:51:04.164Z,3.92
2019-04-27T23:53:35.167Z,4.50
2019-04-27T23:56:04.550Z,4.60
2019-04-27T23:58:34.320Z,3.30
